createdAt,value
2019-03-03T00:01:11.390Z,9.10
2019-03-03T00:03:45.357Z,9.00
2019-03-03T00:06:13.871Z,9.00
2019-03-03T00:08:41.958Z,9.00
2019-03-03T00:13:38.760Z,9.10
2019-03-03T00:16:07.452Z,9.10
2019-03-03T00:21:11.269Z,9.10
2019-03-03T00:23:41.291Z,9.10
2019-03-03T00:26:09.449Z,9.00
2019-03-03T00:28:37.911Z,9.00
2019-03-03T00:31:05.971Z,9.10
2019-03-03T00:33:34.155Z,9.00
2019-03-03T00:36:02.263Z,9.00
2019-03-03T00:39:06.093Z,9.10
2019-03-03T00:41:53.599Z,9.10
2019-03-03T00:44:40.209Z,9.10
2019-03-03T00:47:37.134Z,9.10
2019-03-03T00:50:25.254Z,9.10
2019-03-03T00:53:18.959Z,9.10
2019-03-03T00:55:55.282Z,9.10
2019-03-03T00:58:58.337Z,9.10
2019-03-03T01:01:54.921Z,9.00
2019-03-03T01:04:33.784Z,8.90
2019-03-03T01:07:27.547Z,9.10
2019-03-03T01:10:21.077Z,9.20
2019-03-03T01:12:56.141Z,9.20
2019-03-03T01:15:42.840Z,9.20
2019-03-03T01:18:29.683Z,9.10
2019-03-03T01:21:16.343Z,9.10
2019-03-03T01:23:51.205Z,9.10
2019-03-03T01:26:19.280Z,9.10
2019-03-03T01:28:47.306Z,9.10
2019-03-03T01:31:16.543Z,9.10
2019-03-03T01:33:44.859Z,9.20
2019-03-03T01:36:13.009Z,9.20
2019-03-03T01:38:41.146Z,9.10
2019-03-03T01:41:09.490Z,9.10
2019-03-03T01:43:39.295Z,9.10
2019-03-03T01:46:07.547Z,9.10
2019-03-03T01:48:35.696Z,9.20
2019-03-03T01:51:03.748Z,9.20
2019-03-03T01:53:31.819Z,9.20
2019-03-03T01:56:00.439Z,9.30
2019-03-03T01:58:28.511Z,9.20
2019-03-03T02:00:56.693Z,9.20
2019-03-03T02:03:24.907Z,9.20
2019-03-03T02:05:52.994Z,9.20
2019-03-03T02:08:21.427Z,9.20
2019-03-03T02:10:49.545Z,9.30
2019-03-03T02:13:18.883Z,9.20
2019-03-03T02:18:14.953Z,9.20
2019-03-03T02:20:43.880Z,9.30
2019-03-03T02:23:12.264Z,9.20
2019-03-03T02:25:40.260Z,9.20
2019-03-03T02:28:08.550Z,9.30
2019-03-03T02:30:36.611Z,9.20
2019-03-03T02:33:06.906Z,9.20
2019-03-03T02:35:35.071Z,9.20
2019-03-03T02:38:03.093Z,9.20
2019-03-03T02:40:31.217Z,9.20
2019-03-03T02:42:59.711Z,9.20
2019-03-03T02:45:27.746Z,9.30
2019-03-03T02:47:56.040Z,9.30
2019-03-03T02:50:24.102Z,9.30
2019-03-03T02:52:52.271Z,9.40
2019-03-03T02:55:20.266Z,9.40
2019-03-03T02:57:48.395Z,9.40
2019-03-03T03:00:19.375Z,9.30
2019-03-03T03:02:52.222Z,9.20
2019-03-03T03:05:56.964Z,9.20
2019-03-03T03:08:32.605Z,9.50
2019-03-03T03:11:08.268Z,9.00
2019-03-03T03:13:55.580Z,9.20
2019-03-03T03:16:52.021Z,9.10
2019-03-03T03:19:39.904Z,9.10
2019-03-03T03:22:27.580Z,9.10
2019-03-03T03:25:10.143Z,9.10
2019-03-03T03:27:49.612Z,9.10
2019-03-03T03:30:37.392Z,9.10
2019-03-03T03:33:16.409Z,9.10
2019-03-03T03:35:50.387Z,9.00
2019-03-03T03:38:27.162Z,9.00
2019-03-03T03:41:20.537Z,9.00
2019-03-03T03:44:01.262Z,9.00
2019-03-03T03:46:44.277Z,8.90
2019-03-03T03:51:58.417Z,8.90
2019-03-03T03:54:52.576Z,8.80
2019-03-03T03:57:28.177Z,8.80
2019-03-03T04:00:15.812Z,8.70
2019-03-03T04:03:15.624Z,8.70
2019-03-03T04:06:01.889Z,8.70
2019-03-03T04:11:34.933Z,8.60
2019-03-03T04:14:07.328Z,8.60
2019-03-03T04:16:41.109Z,8.60
2019-03-03T04:19:28.704Z,8.60
2019-03-03T04:22:12.355Z,8.50
2019-03-03T04:25:09.101Z,8.50
2019-03-03T04:27:44.399Z,8.50
2019-03-03T04:30:20.852Z,8.20
2019-03-03T04:33:07.610Z,8.50
2019-03-03T04:35:47.716Z,8.50
2019-03-03T04:38:35.376Z,8.50
2019-03-03T04:41:25.962Z,8.50
2019-03-03T04:44:25.966Z,8.50
2019-03-03T04:47:09.095Z,8.50
2019-03-03T04:50:00.954Z,8.50
2019-03-03T04:53:00.704Z,8.50
2019-03-03T04:56:07.072Z,8.40
2019-03-03T04:58:57.413Z,8.40
2019-03-03T05:04:23.885Z,8.40
2019-03-03T05:07:11.538Z,8.40
2019-03-03T05:09:45.590Z,8.40
2019-03-03T05:12:36.084Z,8.30
2019-03-03T05:15:27.716Z,8.30
2019-03-03T05:18:01.648Z,8.30
2019-03-03T05:20:44.352Z,8.20
2019-03-03T05:23:13.319Z,8.20
2019-03-03T05:25:41.354Z,8.20
2019-03-03T05:28:10.896Z,8.20
2019-03-03T05:30:40.857Z,8.20
2019-03-03T05:33:11.214Z,8.10
2019-03-03T05:35:39.520Z,8.10
2019-03-03T05:38:07.574Z,8.10
2019-03-03T05:40:36.711Z,8.10
2019-03-03T05:43:04.763Z,8.10
2019-03-03T05:45:33.165Z,8.00
2019-03-03T05:48:01.703Z,8.00
2019-03-03T05:50:29.692Z,8.00
2019-03-03T05:52:57.759Z,7.90
2019-03-03T05:55:25.760Z,7.90
2019-03-03T05:57:53.722Z,7.90
2019-03-03T06:00:21.746Z,7.90
2019-03-03T06:02:52.889Z,7.90
2019-03-03T06:05:20.951Z,7.90
2019-03-03T06:10:17.299Z,7.90
2019-03-03T06:12:45.405Z,7.90
2019-03-03T06:15:13.648Z,7.90
2019-03-03T06:17:41.770Z,8.00
2019-03-03T06:20:10.777Z,8.00
2019-03-03T06:22:38.745Z,8.00
2019-03-03T06:25:09.081Z,8.10
2019-03-03T06:27:37.210Z,8.20
2019-03-03T06:30:06.864Z,8.30
2019-03-03T06:35:03.682Z,8.40
2019-03-03T06:37:32.345Z,8.40
2019-03-03T06:40:00.581Z,8.40
2019-03-03T06:44:58.414Z,8.60
2019-03-03T06:47:26.714Z,8.60
2019-03-03T06:49:54.831Z,8.60
2019-03-03T06:52:22.829Z,8.60
2019-03-03T06:54:52.804Z,8.60
2019-03-03T06:59:48.891Z,8.60
2019-03-03T07:02:16.903Z,8.60
2019-03-03T07:04:44.934Z,8.70
2019-03-03T07:07:13.059Z,8.70
2019-03-03T07:09:41.146Z,8.70
2019-03-03T07:12:11.386Z,8.80
2019-03-03T07:14:39.724Z,8.70
2019-03-03T07:17:07.870Z,9.00
2019-03-03T07:19:36.007Z,9.00
2019-03-03T07:22:06.051Z,9.30
2019-03-03T07:24:34.213Z,9.30
2019-03-03T07:29:30.529Z,9.40
2019-03-03T07:31:58.539Z,9.40
2019-03-03T07:34:26.642Z,9.30
2019-03-03T07:36:54.717Z,9.40
2019-03-03T07:39:22.751Z,9.60
2019-03-03T07:41:50.794Z,9.70
2019-03-03T07:44:18.854Z,9.80
2019-03-03T07:46:46.908Z,10.00
2019-03-03T07:49:15.160Z,10.10
2019-03-03T07:51:43.141Z,10.10
2019-03-03T07:54:12.420Z,10.20
2019-03-03T07:56:40.512Z,10.40
2019-03-03T07:59:08.551Z,10.60
2019-03-03T08:01:38.587Z,10.50
2019-03-03T08:04:07.171Z,10.40
2019-03-03T08:06:35.351Z,10.40
2019-03-03T08:11:34.615Z,10.20
2019-03-03T08:14:04.183Z,10.30
2019-03-03T08:16:32.665Z,10.40
2019-03-03T08:19:01.806Z,10.40
2019-03-03T08:21:30.893Z,10.40
2019-03-03T08:24:00.257Z,10.40
2019-03-03T08:26:28.506Z,10.40
2019-03-03T08:28:56.913Z,10.40
2019-03-03T08:31:24.959Z,10.40
2019-03-03T08:33:53.072Z,10.40
2019-03-03T08:36:22.326Z,10.50
2019-03-03T08:38:50.559Z,10.50
2019-03-03T08:41:18.695Z,10.50
2019-03-03T08:44:00.108Z,10.50
2019-03-03T08:46:44.562Z,10.50
2019-03-03T08:49:34.924Z,10.70
2019-03-03T08:52:17.255Z,10.70
2019-03-03T08:55:05.276Z,10.80
2019-03-03T08:58:02.084Z,10.80
2019-03-03T09:01:06.153Z,10.70
2019-03-03T09:04:02.699Z,10.70
2019-03-03T09:06:54.578Z,10.70
2019-03-03T09:09:55.187Z,10.80
2019-03-03T09:12:41.980Z,10.90
2019-03-03T09:15:26.565Z,10.90
2019-03-03T09:18:15.068Z,10.90
2019-03-03T09:20:56.338Z,10.70
2019-03-03T09:23:50.947Z,10.80
2019-03-03T09:26:42.887Z,11.00
2019-03-03T09:29:33.916Z,11.00
2019-03-03T09:32:28.197Z,10.90
2019-03-03T09:35:30.778Z,11.00
2019-03-03T09:38:30.756Z,11.00
2019-03-03T09:41:15.307Z,10.90
2019-03-03T09:43:59.612Z,11.00
2019-03-03T09:46:47.750Z,11.00
2019-03-03T09:49:27.478Z,11.10
2019-03-03T09:52:15.409Z,11.10
2019-03-03T09:55:08.948Z,11.10
2019-03-03T10:01:06.096Z,11.00
2019-03-03T10:03:42.302Z,11.00
2019-03-03T10:06:33.135Z,11.00
2019-03-03T10:09:26.309Z,11.00
2019-03-03T10:11:58.851Z,11.00
2019-03-03T10:14:46.666Z,11.20
2019-03-03T10:17:40.430Z,11.20
2019-03-03T10:20:31.949Z,11.30
2019-03-03T10:23:16.229Z,11.30
2019-03-03T10:26:10.049Z,11.20
2019-03-03T10:28:57.897Z,11.40
2019-03-03T10:31:52.079Z,11.40
2019-03-03T10:37:22.331Z,11.50
2019-03-03T10:40:04.140Z,11.50
2019-03-03T10:42:41.562Z,11.50
2019-03-03T10:45:31.864Z,11.40
2019-03-03T10:48:25.899Z,11.50
2019-03-03T10:51:13.804Z,11.50
2019-03-03T10:53:53.215Z,11.60
2019-03-03T10:56:32.581Z,11.80
2019-03-03T10:59:06.713Z,11.70
2019-03-03T11:01:47.017Z,11.70
2019-03-03T11:04:35.948Z,11.80
2019-03-03T11:07:29.934Z,11.90
2019-03-03T11:13:30.865Z,12.00
2019-03-03T11:16:18.226Z,12.10
2019-03-03T11:19:20.053Z,12.00
2019-03-03T11:22:03.478Z,12.00
2019-03-03T11:24:58.080Z,12.00
2019-03-03T11:27:36.767Z,12.00
2019-03-03T11:30:14.745Z,12.10
2019-03-03T11:32:53.974Z,12.10
2019-03-03T11:35:44.744Z,12.30
2019-03-03T11:38:22.706Z,12.30
2019-03-03T11:41:10.371Z,12.30
2019-03-03T11:43:46.294Z,12.30
2019-03-03T11:46:34.456Z,12.40
2019-03-03T11:49:14.624Z,12.40
2019-03-03T11:52:08.541Z,12.40
2019-03-03T11:54:46.573Z,12.50
2019-03-03T11:57:49.328Z,12.50
2019-03-03T12:00:40.015Z,12.60
2019-03-03T12:03:30.854Z,12.70
2019-03-03T12:06:18.866Z,12.70
2019-03-03T12:11:54.441Z,12.50
2019-03-03T12:14:52.163Z,12.50
2019-03-03T12:20:41.139Z,12.40
2019-03-03T12:23:44.007Z,12.40
2019-03-03T12:26:31.972Z,12.30
2019-03-03T12:29:18.356Z,12.30
2019-03-03T12:31:56.132Z,12.20
2019-03-03T12:34:42.717Z,12.50
2019-03-03T12:37:20.511Z,12.50
2019-03-03T12:40:07.386Z,12.50
2019-03-03T12:42:58.514Z,12.70
2019-03-03T12:48:50.336Z,13.00
2019-03-03T12:51:53.378Z,13.40
2019-03-03T12:54:46.753Z,13.60
2019-03-03T12:57:53.263Z,13.70
2019-03-03T13:00:48.502Z,13.70
2019-03-03T13:03:46.115Z,13.70
2019-03-03T13:06:32.519Z,13.40
2019-03-03T13:09:12.059Z,13.40
2019-03-03T13:11:50.968Z,13.40
2019-03-03T13:14:30.085Z,13.30
2019-03-03T13:17:13.795Z,13.30
2019-03-03T13:20:10.545Z,13.70
2019-03-03T13:22:47.748Z,13.40
2019-03-03T13:25:38.383Z,13.40
2019-03-03T13:28:26.229Z,13.30
2019-03-03T13:31:25.599Z,13.20
2019-03-03T13:34:15.964Z,13.20
2019-03-03T13:36:52.590Z,13.20
2019-03-03T13:39:34.557Z,13.40
2019-03-03T13:42:19.097Z,13.30
2019-03-03T13:44:49.069Z,13.10
2019-03-03T13:47:20.034Z,13.20
2019-03-03T13:49:48.070Z,13.20
2019-03-03T13:52:16.140Z,13.20
2019-03-03T13:54:47.303Z,13.00
2019-03-03T13:57:15.383Z,13.00
2019-03-03T13:59:43.661Z,13.00
2019-03-03T14:02:12.124Z,12.90
2019-03-03T14:04:40.409Z,13.00
2019-03-03T14:07:08.480Z,13.10
2019-03-03T14:09:36.795Z,13.00
2019-03-03T14:12:05.320Z,13.00
2019-03-03T14:19:29.708Z,12.80
2019-03-03T14:21:58.229Z,12.90
2019-03-03T14:24:26.479Z,12.90
2019-03-03T14:26:54.689Z,14.00
2019-03-03T14:29:23.100Z,14.20
2019-03-03T14:31:51.621Z,14.60
2019-03-03T14:34:19.765Z,14.60
2019-03-03T14:36:48.089Z,14.70
2019-03-03T14:39:16.618Z,14.60
2019-03-03T14:41:45.305Z,14.70
2019-03-03T14:44:13.733Z,14.90
2019-03-03T14:46:41.892Z,15.40
2019-03-03T14:49:12.580Z,15.70
2019-03-03T14:51:40.684Z,15.60
2019-03-03T14:54:09.891Z,15.50
2019-03-03T14:56:39.215Z,15.30
2019-03-03T14:59:07.373Z,15.20
2019-03-03T15:01:36.200Z,15.30
2019-03-03T15:04:05.416Z,15.00
2019-03-03T15:06:34.307Z,14.70
2019-03-03T15:09:05.339Z,14.60
2019-03-03T15:11:43.660Z,14.60
2019-03-03T15:14:11.738Z,14.60
2019-03-03T15:16:40.115Z,14.50
2019-03-03T15:19:08.135Z,14.40
2019-03-03T15:21:36.145Z,14.30
2019-03-03T15:24:04.421Z,14.00
2019-03-03T15:26:32.394Z,14.00
2019-03-03T15:29:00.762Z,13.80
2019-03-03T15:31:37.534Z,13.60
2019-03-03T15:33:58.972Z,13.60
2019-03-03T15:36:27.003Z,13.60
2019-03-03T15:38:55.114Z,13.40
2019-03-03T15:41:23.110Z,13.40
2019-03-03T15:43:51.142Z,13.40
2019-03-03T15:48:47.757Z,13.40
2019-03-03T15:51:17.231Z,13.60
2019-03-03T15:53:46.080Z,13.50
2019-03-03T15:56:14.117Z,13.50
2019-03-03T15:58:42.256Z,13.60
2019-03-03T16:01:14.472Z,13.60
2019-03-03T16:03:42.540Z,13.40
2019-03-03T16:06:11.061Z,13.30
2019-03-03T16:08:39.060Z,13.20
2019-03-03T16:11:07.081Z,13.10
2019-03-03T16:13:35.095Z,13.10
2019-03-03T16:16:03.552Z,13.00
2019-03-03T16:18:31.594Z,12.90
2019-03-03T16:20:59.679Z,12.80
2019-03-03T16:23:28.084Z,12.90
2019-03-03T16:25:56.122Z,12.90
2019-03-03T16:28:24.127Z,12.80
2019-03-03T16:33:21.571Z,12.60
2019-03-03T16:35:49.558Z,12.60
2019-03-03T16:38:18.097Z,12.60
2019-03-03T16:40:46.413Z,12.60
2019-03-03T16:43:14.439Z,12.60
2019-03-03T16:45:42.485Z,12.50
2019-03-03T16:48:10.620Z,12.50
2019-03-03T16:50:39.572Z,12.80
2019-03-03T16:53:07.919Z,12.60
2019-03-03T16:55:36.228Z,12.50
2019-03-03T16:58:05.395Z,12.50
2019-03-03T17:00:33.466Z,12.50
2019-03-03T17:03:01.509Z,12.40
2019-03-03T17:05:29.564Z,12.40
2019-03-03T17:07:57.543Z,12.40
2019-03-03T17:10:25.837Z,12.40
2019-03-03T17:12:53.903Z,12.40
2019-03-03T17:15:21.985Z,12.30
2019-03-03T17:17:50.253Z,12.30
2019-03-03T17:20:18.222Z,12.30
2019-03-03T17:22:47.388Z,12.30
2019-03-03T17:25:18.085Z,12.20
2019-03-03T17:27:46.121Z,12.10
2019-03-03T17:30:17.231Z,12.10
2019-03-03T17:32:45.510Z,12.10
2019-03-03T17:35:13.615Z,12.10
2019-03-03T17:37:41.923Z,12.00
2019-03-03T17:40:15.265Z,12.00
2019-03-03T17:42:43.566Z,11.90
2019-03-03T17:47:41.787Z,11.90
2019-03-03T17:50:11.294Z,11.90
2019-03-03T17:52:39.391Z,11.80
2019-03-03T17:57:36.431Z,11.80
2019-03-03T18:00:07.607Z,11.80
2019-03-03T18:02:35.637Z,11.80
2019-03-03T18:05:03.994Z,11.70
2019-03-03T18:07:32.094Z,11.60
2019-03-03T18:10:00.474Z,11.70
2019-03-03T18:12:28.945Z,11.60
2019-03-03T18:14:57.707Z,11.60
2019-03-03T18:17:25.855Z,11.60
2019-03-03T18:19:54.210Z,11.60
2019-03-03T18:22:24.463Z,11.80
2019-03-03T18:24:52.757Z,11.40
2019-03-03T18:27:20.986Z,11.40
2019-03-03T18:29:49.161Z,11.60
2019-03-03T18:32:17.337Z,11.40
2019-03-03T18:34:45.417Z,11.20
2019-03-03T18:37:14.091Z,11.30
2019-03-03T18:39:43.654Z,11.20
2019-03-03T18:44:40.108Z,11.10
2019-03-03T18:47:08.264Z,11.10
2019-03-03T18:49:36.581Z,11.10
2019-03-03T18:52:04.704Z,11.10
2019-03-03T18:54:33.310Z,11.00
2019-03-03T18:57:01.551Z,11.00
2019-03-03T18:59:30.386Z,11.00
2019-03-03T19:01:59.809Z,11.00
2019-03-03T19:06:56.128Z,11.00
2019-03-03T19:09:24.449Z,11.00
2019-03-03T19:11:52.656Z,11.10
2019-03-03T19:14:28.084Z,11.00
2019-03-03T19:16:51.395Z,11.00
2019-03-03T19:19:19.379Z,11.00
2019-03-03T19:21:48.333Z,11.00
2019-03-03T19:24:17.956Z,11.00
2019-03-03T19:29:14.184Z,11.00
2019-03-03T19:31:42.369Z,11.00
2019-03-03T19:34:10.452Z,11.00
2019-03-03T19:36:38.552Z,11.00
2019-03-03T19:39:07.751Z,11.00
2019-03-03T19:41:38.356Z,11.00
2019-03-03T19:44:07.002Z,11.00
2019-03-03T19:46:35.654Z,11.00
2019-03-03T19:49:05.111Z,11.00
2019-03-03T19:54:03.890Z,11.10
2019-03-03T19:56:32.161Z,11.10
2019-03-03T19:59:00.741Z,11.00
2019-03-03T20:01:28.934Z,11.10
2019-03-03T20:03:57.381Z,11.10
2019-03-03T20:06:25.447Z,11.00
2019-03-03T20:08:54.022Z,11.00
2019-03-03T20:11:22.373Z,11.00
2019-03-03T20:13:50.613Z,11.00
2019-03-03T20:16:20.996Z,11.00
2019-03-03T20:18:49.107Z,11.10
2019-03-03T20:21:17.432Z,11.00
2019-03-03T20:23:45.539Z,11.20
2019-03-03T20:26:13.783Z,11.10
2019-03-03T20:28:43.615Z,11.20
2019-03-03T20:31:12.418Z,11.10
2019-03-03T20:33:40.585Z,11.20
2019-03-03T20:36:09.473Z,11.20
2019-03-03T20:38:37.983Z,11.20
2019-03-03T20:41:06.226Z,11.20
2019-03-03T20:43:34.396Z,11.20
2019-03-03T20:46:02.748Z,11.10
2019-03-03T20:48:32.016Z,11.10
2019-03-03T20:51:00.292Z,11.00
2019-03-03T20:53:33.756Z,11.10
2019-03-03T20:56:02.482Z,11.00
2019-03-03T20:58:32.131Z,11.10
2019-03-03T21:01:01.020Z,11.10
2019-03-03T21:03:29.255Z,11.00
2019-03-03T21:05:57.542Z,11.00
2019-03-03T21:08:27.631Z,11.00
2019-03-03T21:10:56.165Z,11.00
2019-03-03T21:13:24.441Z,10.90
2019-03-03T21:15:52.524Z,10.90
2019-03-03T21:18:20.650Z,10.90
2019-03-03T21:20:50.126Z,10.90
2019-03-03T21:23:18.372Z,10.90
2019-03-03T21:25:46.440Z,10.70
2019-03-03T21:30:42.795Z,10.70
2019-03-03T21:33:10.890Z,10.70
2019-03-03T21:35:41.284Z,10.60
2019-03-03T21:38:09.329Z,10.60
2019-03-03T21:40:37.559Z,10.60
2019-03-03T21:43:06.182Z,10.60
2019-03-03T21:45:34.480Z,10.80
2019-03-03T21:48:02.511Z,10.50
2019-03-03T21:50:30.735Z,10.50
2019-03-03T21:53:00.132Z,10.50
2019-03-03T21:55:28.777Z,10.40
2019-03-03T21:57:59.250Z,10.30
2019-03-03T22:00:33.133Z,10.30
2019-03-03T22:03:01.304Z,10.30
2019-03-03T22:05:29.597Z,10.30
2019-03-03T22:07:57.752Z,10.20
2019-03-03T22:10:29.454Z,10.20
2019-03-03T22:13:00.209Z,10.30
2019-03-03T22:15:28.356Z,10.40
2019-03-03T22:17:56.450Z,10.30
2019-03-03T22:20:26.696Z,10.40
2019-03-03T22:22:54.762Z,10.50
2019-03-03T22:25:23.143Z,10.50
2019-03-03T22:27:51.090Z,10.50
2019-03-03T22:30:19.211Z,10.50
2019-03-03T22:32:48.091Z,10.60
2019-03-03T22:35:16.224Z,10.60
2019-03-03T22:37:44.266Z,10.50
2019-03-03T22:40:12.404Z,10.50
2019-03-03T22:42:40.850Z,10.50
2019-03-03T22:45:11.681Z,10.50
2019-03-03T22:47:41.837Z,10.50
2019-03-03T22:52:39.584Z,10.40
2019-03-03T22:55:08.440Z,10.40
2019-03-03T22:57:36.729Z,10.30
2019-03-03T23:00:27.585Z,10.20
2019-03-03T23:02:59.337Z,10.10
2019-03-03T23:05:50.918Z,10.00
2019-03-03T23:08:32.830Z,10.00
2019-03-03T23:11:36.582Z,9.80
2019-03-03T23:14:26.222Z,9.70
2019-03-03T23:17:53.212Z,9.70
2019-03-03T23:24:02.890Z,9.50
2019-03-03T23:26:31.264Z,9.50
2019-03-03T23:28:59.600Z,9.40
2019-03-03T23:31:27.758Z,9.30
2019-03-03T23:33:57.484Z,9.30
2019-03-03T23:36:28.769Z,9.30
2019-03-03T23:38:59.920Z,9.30
2019-03-03T23:41:27.983Z,9.30
2019-03-03T23:43:56.225Z,9.30
2019-03-03T23:46:24.424Z,9.40
2019-03-03T23:48:52.731Z,9.50
2019-03-03T23:51:21.045Z,10.00
2019-03-03T23:53:49.171Z,10.30
2019-03-03T23:56:17.154Z,10.40
2019-03-03T23:58:46.105Z,10.60
